createdAt,value
2019-04-22T00:11:03.215Z,53.60
2019-04-22T00:41:06.875Z,55.70
2019-04-22T01:11:12.052Z,57.00
2019-04-22T01:41:15.992Z,58.10
2019-04-22T02:11:29.321Z,60.80
2019-04-22T02:41:41.026Z,68.60
2019-04-22T03:42:05.161Z,81.10
2019-04-22T04:12:01.967Z,90.70
2019-04-22T04:42:08.811Z,92.90
2019-04-22T05:12:14.824Z,93.40
2019-04-22T05:42:03.661Z,90.70
2019-04-22T06:11:58.961Z,81.80
2019-04-22T06:42:19.253Z,68.10
2019-04-22T07:12:18.674Z,52.60
2019-04-22T07:42:24.522Z,49.40
2019-04-22T08:12:34.918Z,38.50
2019-04-22T08:42:43.515Z,51.30
2019-04-22T09:12:51.997Z,52.60
2019-04-22T10:12:46.742Z,40.30
2019-04-22T10:42:33.596Z,49.70
2019-04-22T11:12:38.067Z,54.50
2019-04-22T11:42:43.902Z,57.90
2019-04-22T12:12:49.628Z,60.50
2019-04-22T12:42:55.315Z,60.60
2019-04-22T13:13:00.747Z,59.50
2019-04-22T13:43:05.100Z,59.40
2019-04-22T14:13:09.913Z,57.50
2019-04-22T14:43:44.910Z,55.10
2019-04-22T15:13:21.096Z,48.40
2019-04-22T15:43:28.917Z,44.40
2019-04-22T16:13:33.944Z,44.80
2019-04-22T16:43:36.573Z,42.50
2019-04-22T17:13:42.479Z,46.90
2019-04-22T17:44:13.599Z,45.20
2019-04-22T18:14:31.576Z,47.30
2019-04-22T18:44:22.765Z,49.00
2019-04-22T19:14:24.203Z,49.20
2019-04-22T19:44:36.387Z,51.60
2019-04-22T20:14:35.831Z,55.00
2019-04-22T20:44:50.459Z,55.40
2019-04-22T21:14:53.276Z,54.40
2019-04-22T21:44:49.998Z,55.70
2019-04-22T22:14:57.670Z,54.80
2019-04-22T22:44:48.113Z,55.70
2019-04-22T23:15:04.701Z,56.20
2019-04-22T23:45:19.194Z,55.70
